Coto de Caza, California
Current Conditions -  °F | °C
As of 8:53 PM on Tuesday 25 Nov 2014 (Local Time) from KSNA Reporting Station
Clear Clear  
Wind Chill: 64°   Ceiling: Unl
Heat Index: 64°   Visibility: 10mi
Dew Point: 33°   Wind: 0mph
Humidity: 31%   Direction: NA
Pressure: 30.28"   Gusts: NA
Location:  33.6153°N, 117.532°W
Report Text: KSNA 260453Z 00000KT 10SM CLR 18/01 A3028 RMK AO2 SLP254 T01780006 $
Loading
Personal Weather Stations






























Interactive Weather Map New forecast layout! Learn more

10-Day Weather Forecast

Advertisements
Track Severe Weather on mobile